createdAt,value
2022-12-13T00:01:52.240Z,21.83
2022-12-13T00:04:31.328Z,19.17
2022-12-13T00:07:06.222Z,19.80
2022-12-13T00:09:42.411Z,21.00
2022-12-13T00:12:11.019Z,20.67
2022-12-13T00:14:46.192Z,19.27
2022-12-13T00:17:14.983Z,18.83
2022-12-13T00:19:51.162Z,22.93
2022-12-13T00:22:19.680Z,20.07
2022-12-13T00:24:55.275Z,19.03
2022-12-13T00:27:23.831Z,17.30
2022-12-13T00:29:59.282Z,22.03
2022-12-13T00:32:27.850Z,20.50
2022-12-13T00:35:04.095Z,20.17
2022-12-13T00:37:32.530Z,18.90
2022-12-13T00:40:07.302Z,19.83
2022-12-13T00:42:36.629Z,18.50
2022-12-13T00:45:12.527Z,21.67
2022-12-13T00:47:41.331Z,18.97
2022-12-13T00:50:18.176Z,19.10
2022-12-13T00:52:46.334Z,18.40
2022-12-13T00:55:21.120Z,19.70
2022-12-13T00:57:49.538Z,21.67
2022-12-13T01:00:24.300Z,19.03
2022-12-13T01:02:54.167Z,19.63
2022-12-13T01:06:11.138Z,18.83
2022-12-13T01:08:26.800Z,19.40
2022-12-13T01:11:02.091Z,19.70
2022-12-13T01:13:30.380Z,21.80
2022-12-13T01:16:05.130Z,19.57
2022-12-13T01:18:33.996Z,19.93
2022-12-13T01:21:13.155Z,17.73
2022-12-13T01:23:42.727Z,21.57
2022-12-13T01:26:20.406Z,18.93
2022-12-13T01:28:49.989Z,18.07
2022-12-13T01:31:27.144Z,17.63
2022-12-13T01:33:55.322Z,21.87
2022-12-13T01:36:32.176Z,17.10
2022-12-13T01:39:14.747Z,24.13
2022-12-13T01:41:52.203Z,18.70
2022-12-13T01:45:04.197Z,18.07
2022-12-13T01:47:38.650Z,16.50
2022-12-13T01:50:18.206Z,17.80
2022-12-13T01:52:49.554Z,16.57
2022-12-13T01:55:26.328Z,17.80
2022-12-13T01:57:57.173Z,18.63
2022-12-13T02:00:34.381Z,19.30
2022-12-13T02:03:23.173Z,19.47
2022-12-13T02:06:05.206Z,17.77
2022-12-13T02:08:37.018Z,17.20
2022-12-13T02:11:13.179Z,17.90
2022-12-13T02:13:41.834Z,17.10
2022-12-13T02:16:24.283Z,17.50
2022-12-13T02:19:06.074Z,17.20
2022-12-13T02:21:51.338Z,18.33
2022-12-13T02:24:47.098Z,20.13
2022-12-13T02:27:42.807Z,17.67
2022-12-13T02:30:34.018Z,16.10
2022-12-13T02:33:39.204Z,17.40
2022-12-13T02:36:13.306Z,17.37
2022-12-13T02:38:57.372Z,18.13
2022-12-13T02:41:34.476Z,17.97
2022-12-13T02:44:22.215Z,16.67
2022-12-13T02:46:57.673Z,17.43
2022-12-13T02:49:35.286Z,16.80
2022-12-13T02:52:06.072Z,17.20
2022-12-13T02:54:42.715Z,16.70
2022-12-13T02:57:33.284Z,18.43
2022-12-13T03:00:13.252Z,15.20
2022-12-13T03:03:03.241Z,16.47
2022-12-13T03:06:04.217Z,19.77
2022-12-13T03:08:44.124Z,17.93
2022-12-13T03:11:21.628Z,16.73
2022-12-13T03:13:53.271Z,16.67
2022-12-13T03:16:37.583Z,15.37
2022-12-13T03:19:10.770Z,18.17
2022-12-13T03:21:48.595Z,16.00
2022-12-13T03:24:19.824Z,15.00
2022-12-13T03:26:56.223Z,16.00
2022-12-13T03:29:25.167Z,16.90
2022-12-13T03:32:00.228Z,16.47
2022-12-13T03:34:43.751Z,15.10
2022-12-13T03:37:20.368Z,16.27
2022-12-13T03:39:48.900Z,14.43
2022-12-13T03:42:24.375Z,15.40
2022-12-13T03:44:52.789Z,15.90
2022-12-13T03:47:27.181Z,15.60
2022-12-13T03:49:57.096Z,14.30
2022-12-13T03:52:42.266Z,15.03
2022-12-13T03:55:10.991Z,15.87
2022-12-13T03:57:46.215Z,18.77
2022-12-13T04:00:15.721Z,16.60
2022-12-13T04:02:57.532Z,14.83
2022-12-13T04:05:33.851Z,13.67
2022-12-13T04:08:22.111Z,15.10
2022-12-13T04:10:51.123Z,18.00
2022-12-13T04:13:39.258Z,15.13
2022-12-13T04:16:08.197Z,15.93
2022-12-13T04:18:43.324Z,14.87
2022-12-13T04:21:14.453Z,15.27
2022-12-13T04:23:49.336Z,14.37
2022-12-13T04:26:17.568Z,15.03
2022-12-13T04:28:54.710Z,15.57
2022-12-13T04:31:23.825Z,15.97
2022-12-13T04:33:59.302Z,14.97
2022-12-13T04:36:32.329Z,14.77
2022-12-13T04:39:22.177Z,15.07
2022-12-13T04:41:53.001Z,15.00
2022-12-13T04:44:32.605Z,15.87
2022-12-13T04:47:04.650Z,15.80
2022-12-13T04:49:39.390Z,16.40
2022-12-13T04:52:09.287Z,15.20
2022-12-13T04:54:44.342Z,15.60
2022-12-13T04:57:13.256Z,15.43
2022-12-13T04:59:49.310Z,16.17
2022-12-13T05:02:23.530Z,16.70
2022-12-13T05:05:05.455Z,16.80
2022-12-13T05:07:35.064Z,17.00
2022-12-13T05:10:33.916Z,15.40
2022-12-13T05:13:11.389Z,15.23
2022-12-13T05:15:39.647Z,15.73
2022-12-13T05:18:16.391Z,14.43
2022-12-13T05:20:44.617Z,16.57
2022-12-13T05:23:22.562Z,17.20
2022-12-13T05:25:51.600Z,15.63
2022-12-13T05:28:27.524Z,16.07
2022-12-13T05:30:58.596Z,15.37
2022-12-13T05:33:34.356Z,17.60
2022-12-13T05:36:02.802Z,14.70
2022-12-13T05:38:39.398Z,16.53
2022-12-13T05:41:08.411Z,18.50
2022-12-13T05:43:43.908Z,16.60
2022-12-13T05:46:13.425Z,16.27
2022-12-13T05:48:48.289Z,15.47
2022-12-13T05:51:16.461Z,15.50
2022-12-13T05:53:53.633Z,16.67
2022-12-13T05:56:23.156Z,14.80
2022-12-13T05:58:58.424Z,16.03
2022-12-13T06:01:26.873Z,14.50
2022-12-13T06:04:22.787Z,14.70
2022-12-13T06:06:51.970Z,16.77
2022-12-13T06:09:29.385Z,14.87
2022-12-13T06:12:00.949Z,16.47
2022-12-13T06:14:36.346Z,19.37
2022-12-13T06:17:05.580Z,16.93
2022-12-13T06:19:40.416Z,14.67
2022-12-13T06:22:08.871Z,19.10
2022-12-13T06:24:45.420Z,15.43
2022-12-13T06:27:13.700Z,15.10
2022-12-13T06:29:48.520Z,15.60
2022-12-13T06:32:16.768Z,17.23
2022-12-13T06:34:51.387Z,15.93
2022-12-13T06:37:19.869Z,17.87
2022-12-13T06:39:56.585Z,18.20
2022-12-13T06:42:24.796Z,19.47
2022-12-13T06:44:59.483Z,18.27
2022-12-13T06:47:31.420Z,16.73
2022-12-13T06:50:07.456Z,17.27
2022-12-13T06:52:35.782Z,17.37
2022-12-13T06:55:12.433Z,16.17
2022-12-13T06:57:41.155Z,20.57
2022-12-13T07:00:22.843Z,18.33
2022-12-13T07:02:56.209Z,18.50
2022-12-13T07:05:38.421Z,17.00
2022-12-13T07:08:11.847Z,16.23
2022-12-13T07:10:48.423Z,18.33
2022-12-13T07:13:18.958Z,18.30
2022-12-13T07:15:54.606Z,18.37
2022-12-13T07:18:29.627Z,18.07
2022-12-13T07:21:04.400Z,21.07
2022-12-13T07:23:32.757Z,17.83
2022-12-13T07:26:09.622Z,17.73
2022-12-13T07:28:38.757Z,21.47
2022-12-13T07:31:16.535Z,19.13
2022-12-13T07:33:44.855Z,20.53
2022-12-13T07:36:21.490Z,20.70
2022-12-13T07:38:52.907Z,19.90
2022-12-13T07:41:31.578Z,19.50
2022-12-13T07:43:59.968Z,18.43
2022-12-13T07:46:35.518Z,22.33
2022-12-13T07:49:04.395Z,17.77
2022-12-13T07:51:43.594Z,21.13
2022-12-13T07:54:13.069Z,19.33
2022-12-13T07:56:49.488Z,20.83
2022-12-13T07:59:28.441Z,20.50
2022-12-13T08:02:03.663Z,23.13
2022-12-13T08:04:39.330Z,18.63
2022-12-13T08:07:21.813Z,21.80
2022-12-13T08:09:52.961Z,21.87
2022-12-13T08:12:29.652Z,24.00
2022-12-13T08:14:58.001Z,23.77
2022-12-13T08:17:33.449Z,21.93
2022-12-13T08:20:02.948Z,19.93
2022-12-13T08:22:37.545Z,20.23
2022-12-13T08:25:07.518Z,19.67
2022-12-13T08:27:44.475Z,18.63
2022-12-13T08:30:17.517Z,21.67
2022-12-13T08:32:58.648Z,20.50
2022-12-13T08:35:34.533Z,21.93
2022-12-13T08:38:10.478Z,19.73
2022-12-13T08:40:39.188Z,22.43
2022-12-13T08:43:15.608Z,20.43
2022-12-13T08:45:44.411Z,20.10
2022-12-13T08:48:19.845Z,21.43
2022-12-13T08:50:48.613Z,21.67
2022-12-13T08:53:28.944Z,19.10
2022-12-13T08:56:02.475Z,22.83
2022-12-13T08:58:39.526Z,19.20
2022-12-13T09:01:08.434Z,20.97
2022-12-13T09:03:44.502Z,20.83
2022-12-13T09:06:21.879Z,18.70
2022-12-13T09:08:56.577Z,20.17
2022-12-13T09:11:36.550Z,22.43
2022-12-13T09:14:16.649Z,20.93
2022-12-13T09:16:52.232Z,22.70
2022-12-13T09:19:27.600Z,24.47
2022-12-13T09:22:02.462Z,19.40
2022-12-13T09:24:38.554Z,23.20
2022-12-13T09:27:09.440Z,22.93
2022-12-13T09:29:46.523Z,23.33
2022-12-13T09:32:15.028Z,20.97
2022-12-13T09:34:50.653Z,21.63
2022-12-13T09:37:23.151Z,20.10
2022-12-13T09:39:58.617Z,21.23
2022-12-13T09:43:08.329Z,22.87
2022-12-13T09:45:51.778Z,23.87
2022-12-13T09:48:23.248Z,23.27
2022-12-13T09:51:18.321Z,23.30
2022-12-13T09:53:51.026Z,25.63
2022-12-13T09:56:27.584Z,24.47
2022-12-13T09:58:57.769Z,23.33
2022-12-13T10:01:34.631Z,25.67
2022-12-13T10:04:25.748Z,24.73
2022-12-13T10:07:01.701Z,27.20
2022-12-13T10:09:29.906Z,28.60
2022-12-13T10:12:04.521Z,27.70
2022-12-13T10:14:40.542Z,25.90
2022-12-13T10:17:22.615Z,22.87
2022-12-13T10:19:52.922Z,26.00
2022-12-13T10:22:30.638Z,28.07
2022-12-13T10:25:03.699Z,23.87
2022-12-13T10:27:43.562Z,25.33
2022-12-13T10:30:14.573Z,27.67
2022-12-13T10:33:00.704Z,24.20
2022-12-13T10:35:30.805Z,27.10
2022-12-13T10:38:08.571Z,30.47
2022-12-13T10:40:40.512Z,25.07
2022-12-13T10:43:19.585Z,26.53
2022-12-13T10:46:00.422Z,24.00
2022-12-13T10:48:42.760Z,25.67
2022-12-13T10:51:14.354Z,28.23
2022-12-13T10:53:54.571Z,27.23
2022-12-13T10:56:34.207Z,28.40
2022-12-13T10:59:18.821Z,25.07
2022-12-13T11:01:47.685Z,24.97
2022-12-13T11:04:34.799Z,25.60
2022-12-13T11:07:25.247Z,26.37
2022-12-13T11:10:05.106Z,25.20
2022-12-13T11:12:34.696Z,24.40
2022-12-13T11:15:14.683Z,25.50
2022-12-13T11:17:50.522Z,28.10
2022-12-13T11:20:29.657Z,26.90
2022-12-13T11:23:03.742Z,24.67
2022-12-13T11:25:46.632Z,27.83
2022-12-13T11:28:28.135Z,23.20
2022-12-13T11:31:16.788Z,23.20
2022-12-13T11:33:56.147Z,29.47
2022-12-13T11:36:43.809Z,25.77
2022-12-13T11:39:21.166Z,25.20
2022-12-13T11:42:01.696Z,25.47
2022-12-13T11:44:47.876Z,25.27
2022-12-13T11:47:27.629Z,26.70
2022-12-13T11:49:58.674Z,27.13
2022-12-13T11:52:37.833Z,25.43
2022-12-13T11:55:16.113Z,27.30
2022-12-13T11:57:55.631Z,23.97
2022-12-13T12:00:33.647Z,25.47
2022-12-13T12:03:22.821Z,26.13
2022-12-13T12:06:02.091Z,25.53
2022-12-13T12:08:44.870Z,22.20
2022-12-13T12:11:21.609Z,25.00
2022-12-13T12:14:00.716Z,22.50
2022-12-13T12:16:38.118Z,24.47
2022-12-13T12:19:21.732Z,23.97
2022-12-13T12:22:13.598Z,24.37
2022-12-13T12:25:02.673Z,23.50
2022-12-13T12:27:40.012Z,26.57
2022-12-13T12:30:24.669Z,23.20
2022-12-13T12:33:00.867Z,26.60
2022-12-13T12:36:03.681Z,23.87
2022-12-13T12:39:08.853Z,27.33
2022-12-13T12:42:00.687Z,27.23
2022-12-13T12:44:38.567Z,26.77
2022-12-13T12:47:57.575Z,27.33
2022-12-13T12:50:28.486Z,27.20
2022-12-13T12:53:10.729Z,24.40
2022-12-13T12:55:49.371Z,23.13
2022-12-13T12:58:33.756Z,23.50
2022-12-13T13:01:17.857Z,24.37
2022-12-13T13:03:53.762Z,26.97
2022-12-13T13:06:41.462Z,23.63
2022-12-13T13:09:24.795Z,23.97
2022-12-13T13:11:57.591Z,23.20
2022-12-13T13:14:49.937Z,23.97
2022-12-13T13:17:47.812Z,26.33
2022-12-13T13:20:31.735Z,22.43
2022-12-13T13:28:52.337Z,26.93
2022-12-13T13:31:28.768Z,26.93
2022-12-13T13:33:57.302Z,24.10
2022-12-13T13:36:58.792Z,24.30
2022-12-13T13:40:01.016Z,25.90
2022-12-13T13:42:37.243Z,23.47
2022-12-13T13:45:22.825Z,26.97
2022-12-13T13:48:14.457Z,25.97
2022-12-13T13:51:12.225Z,27.20
2022-12-13T13:54:28.741Z,28.07
2022-12-13T13:58:08.271Z,26.40
2022-12-13T14:00:48.803Z,24.20
2022-12-13T14:04:03.540Z,24.07
2022-12-13T14:07:27.764Z,25.70
2022-12-13T14:10:19.589Z,26.03
2022-12-13T14:13:36.731Z,24.50
2022-12-13T14:16:58.775Z,24.03
2022-12-13T14:20:20.632Z,27.20
2022-12-13T14:23:01.765Z,26.47
2022-12-13T14:26:06.759Z,24.77
2022-12-13T14:28:52.825Z,24.17
2022-12-13T14:31:25.773Z,24.53
2022-12-13T14:34:03.900Z,27.13
2022-12-13T14:36:35.491Z,23.00
2022-12-13T14:39:24.466Z,24.00
2022-12-13T14:41:56.680Z,23.93
2022-12-13T14:44:34.857Z,26.23
2022-12-13T14:47:06.824Z,22.87
2022-12-13T14:49:48.947Z,22.77
2022-12-13T14:52:26.318Z,27.20
2022-12-13T14:55:04.013Z,24.27
2022-12-13T14:57:34.423Z,24.10
2022-12-13T15:00:27.880Z,25.67
2022-12-13T15:03:00.126Z,26.20
2022-12-13T15:05:50.327Z,23.47
2022-12-13T15:08:21.816Z,24.17
2022-12-13T15:10:58.976Z,26.67
2022-12-13T15:13:30.363Z,26.57
2022-12-13T15:16:10.484Z,25.93
2022-12-13T15:18:39.636Z,23.17
2022-12-13T15:21:28.815Z,24.40
2022-12-13T15:24:00.039Z,25.77
2022-12-13T15:26:36.195Z,23.43
2022-12-13T15:29:10.655Z,26.30
2022-12-13T15:31:48.889Z,27.43
2022-12-13T15:34:31.836Z,26.90
2022-12-13T15:37:08.920Z,24.10
2022-12-13T15:40:02.034Z,23.03
2022-12-13T15:42:40.892Z,22.33
2022-12-13T15:45:21.355Z,24.20
2022-12-13T15:47:56.876Z,22.73
2022-12-13T15:50:35.106Z,23.83
2022-12-13T15:53:12.888Z,28.80
2022-12-13T15:55:43.063Z,25.43
2022-12-13T15:58:32.953Z,24.87
2022-12-13T16:01:05.535Z,27.23
2022-12-13T16:03:49.929Z,22.97
2022-12-13T16:06:28.255Z,22.67
2022-12-13T16:09:07.008Z,21.97
2022-12-13T16:11:42.163Z,23.23
2022-12-13T16:14:51.036Z,23.37
2022-12-13T16:17:25.716Z,25.40
2022-12-13T16:20:06.158Z,26.40
2022-12-13T16:22:37.814Z,22.30
2022-12-13T16:25:15.955Z,23.53
2022-12-13T16:27:46.221Z,24.30
2022-12-13T16:30:31.092Z,21.93
2022-12-13T16:35:55.874Z,22.90
2022-12-13T16:38:26.502Z,23.80
2022-12-13T16:41:09.321Z,23.73
2022-12-13T16:43:49.598Z,23.97
2022-12-13T16:47:16.880Z,21.80
2022-12-13T16:49:21.884Z,24.93
2022-12-13T16:51:57.052Z,21.57
2022-12-13T16:54:27.297Z,21.97
2022-12-13T16:57:02.889Z,21.47
2022-12-13T16:59:32.570Z,22.30
2022-12-13T17:02:07.934Z,23.37
2022-12-13T17:04:43.445Z,20.03
2022-12-13T17:07:25.122Z,19.33
2022-12-13T17:09:53.360Z,20.17
2022-12-13T17:12:28.078Z,26.30
2022-12-13T17:14:57.928Z,23.60
2022-12-13T17:17:32.919Z,22.03
2022-12-13T17:20:01.544Z,22.47
2022-12-13T17:22:35.887Z,21.13
2022-12-13T17:25:05.032Z,18.57
2022-12-13T17:27:40.917Z,17.93
2022-12-13T17:30:16.352Z,20.53
2022-12-13T17:32:50.909Z,18.43
2022-12-13T17:35:19.577Z,20.27
2022-12-13T17:37:55.104Z,19.60
2022-12-13T17:40:23.729Z,19.70
2022-12-13T17:42:58.923Z,21.33
2022-12-13T17:45:28.778Z,20.07
2022-12-13T17:48:03.861Z,18.67
2022-12-13T17:50:32.254Z,21.80
2022-12-13T17:53:07.000Z,19.57
2022-12-13T17:55:35.225Z,20.27
2022-12-13T17:58:10.744Z,17.50
2022-12-13T18:00:41.356Z,19.27
2022-12-13T18:03:17.126Z,18.17
2022-12-13T18:05:53.327Z,17.27
2022-12-13T18:08:36.721Z,18.50
2022-12-13T18:14:02.169Z,21.70
2022-12-13T18:16:36.894Z,19.53
2022-12-13T18:19:13.959Z,20.73
2022-12-13T18:21:43.414Z,17.70
2022-12-13T18:24:19.964Z,16.97
2022-12-13T18:26:48.254Z,17.80
2022-12-13T18:29:23.980Z,16.97
2022-12-13T18:31:53.867Z,18.03
2022-12-13T18:34:29.066Z,18.33
2022-12-13T18:36:57.485Z,18.50
2022-12-13T18:39:31.994Z,17.63
2022-12-13T18:42:00.235Z,17.37
2022-12-13T18:44:34.989Z,19.63
2022-12-13T18:47:04.937Z,15.80
2022-12-13T18:49:55.505Z,17.60
2022-12-13T18:52:29.961Z,17.20
2022-12-13T18:55:04.971Z,16.30
2022-12-13T18:57:33.169Z,18.03
2022-12-13T19:00:08.248Z,16.57
2022-12-13T19:02:38.561Z,17.80
2022-12-13T19:05:14.146Z,16.53
2022-12-13T19:07:49.609Z,15.23
2022-12-13T19:10:25.011Z,17.47
2022-12-13T19:12:54.363Z,17.87
2022-12-13T19:15:28.998Z,16.40
2022-12-13T19:17:58.793Z,18.23
2022-12-13T19:20:34.139Z,16.27
2022-12-13T19:23:02.823Z,15.87
2022-12-13T19:25:38.068Z,17.60
2022-12-13T19:28:06.693Z,17.57
2022-12-13T19:30:42.178Z,17.37
2022-12-13T19:33:19.117Z,16.90
2022-12-13T19:35:48.075Z,17.13
2022-12-13T19:38:23.078Z,16.87
2022-12-13T19:40:51.833Z,18.40
2022-12-13T19:43:28.601Z,18.30
2022-12-13T19:45:57.457Z,15.73
2022-12-13T19:48:34.185Z,17.30
2022-12-13T19:51:04.043Z,16.10
2022-12-13T19:53:39.164Z,19.83
2022-12-13T19:56:11.152Z,16.47
2022-12-13T19:58:46.963Z,16.60
2022-12-13T20:01:15.411Z,18.00
2022-12-13T20:03:53.200Z,16.57
2022-12-13T20:06:28.061Z,17.37
2022-12-13T20:09:03.205Z,17.27
2022-12-13T20:11:32.752Z,15.53
2022-12-13T20:14:08.225Z,16.27
2022-12-13T20:16:37.475Z,16.27
2022-12-13T20:19:14.191Z,18.53
2022-12-13T20:21:42.763Z,18.67
2022-12-13T20:24:19.674Z,17.27
2022-12-13T20:26:48.054Z,18.53
2022-12-13T20:29:24.057Z,15.10
2022-12-13T20:31:54.288Z,17.07
2022-12-13T20:34:30.160Z,18.93
2022-12-13T20:36:58.475Z,15.03
2022-12-13T20:39:33.265Z,18.73
2022-12-13T20:42:01.476Z,17.07
2022-12-13T20:44:36.232Z,15.90
2022-12-13T20:47:04.559Z,15.83
2022-12-13T20:49:41.130Z,18.00
2022-12-13T20:52:09.278Z,17.87
2022-12-13T20:54:44.400Z,17.23
2022-12-13T20:57:12.878Z,21.20
2022-12-13T20:59:48.316Z,15.20
2022-12-13T21:02:16.689Z,16.70
2022-12-13T21:04:53.177Z,18.70
2022-12-13T21:07:42.206Z,17.30
2022-12-13T21:10:23.106Z,17.67
2022-12-13T21:12:51.633Z,17.07
2022-12-13T21:15:26.265Z,19.47
2022-12-13T21:17:54.515Z,16.47
2022-12-13T21:20:31.111Z,22.67
2022-12-13T21:22:59.522Z,18.50
2022-12-13T21:25:34.184Z,18.30
2022-12-13T21:28:02.407Z,14.93
2022-12-13T21:30:37.284Z,16.60
2022-12-13T21:33:05.824Z,15.97
2022-12-13T21:35:42.068Z,15.10
2022-12-13T21:38:10.478Z,17.47
2022-12-13T21:40:45.084Z,16.80
2022-12-13T21:43:13.370Z,19.50
2022-12-13T21:45:48.140Z,18.63
2022-12-13T21:48:16.858Z,18.93
2022-12-13T21:50:59.132Z,19.47
2022-12-13T21:53:28.364Z,18.50
2022-12-13T21:56:23.349Z,17.80
2022-12-13T21:59:08.850Z,16.97
2022-12-13T22:02:01.371Z,16.53
2022-12-13T22:04:29.843Z,16.97
2022-12-13T22:07:14.116Z,17.90
2022-12-13T22:09:42.617Z,16.87
2022-12-13T22:12:25.208Z,16.10
2022-12-13T22:14:55.240Z,15.73
2022-12-13T22:17:35.814Z,15.77
2022-12-13T22:20:05.718Z,16.13
2022-12-13T22:22:42.229Z,17.20
2022-12-13T22:25:11.841Z,18.00
2022-12-13T22:27:46.393Z,18.27
2022-12-13T22:30:14.871Z,16.40
2022-12-13T22:32:50.146Z,15.83
2022-12-13T22:35:19.099Z,19.40
2022-12-13T22:38:01.530Z,16.93
2022-12-13T22:40:30.237Z,16.00
2022-12-13T22:43:05.252Z,17.13
2022-12-13T22:45:33.799Z,18.40
2022-12-13T22:48:09.348Z,17.23
2022-12-13T22:50:37.767Z,14.50
2022-12-13T22:53:14.220Z,17.50
2022-12-13T22:55:42.566Z,17.93
2022-12-13T22:58:17.152Z,16.33
2022-12-13T23:00:45.600Z,17.30
2022-12-13T23:03:20.468Z,17.00
2022-12-13T23:05:55.599Z,14.63
2022-12-13T23:08:32.348Z,14.93
2022-12-13T23:11:18.444Z,17.83
2022-12-13T23:13:53.271Z,16.57
2022-12-13T23:16:23.129Z,15.10
2022-12-13T23:19:17.271Z,16.03
2022-12-13T23:21:48.458Z,15.63
2022-12-13T23:24:25.298Z,15.53
2022-12-13T23:26:53.636Z,15.80
2022-12-13T23:29:29.191Z,16.23
2022-12-13T23:31:57.530Z,16.50
2022-12-13T23:34:33.264Z,16.67
2022-12-13T23:37:01.767Z,17.87
2022-12-13T23:39:38.198Z,17.27
2022-12-13T23:42:06.639Z,16.73
2022-12-13T23:44:41.399Z,15.93
2022-12-13T23:47:10.046Z,14.10
2022-12-13T23:49:45.386Z,14.43
2022-12-13T23:52:16.639Z,12.97
2022-12-13T23:54:53.222Z,13.90
2022-12-13T23:57:21.812Z,14.73
2022-12-13T23:59:56.209Z,13.27
